<?xml version="1.0" encoding="UTF-8" standalone="no" ?>
<gpx xmlns="http://www.topografix.com/GPX/1/1" xmlns:xsi="http://www.w3.org/2001/XMLSchema-instance" xsi:schemaLocation="http://www.topografix.com/GPX/1/1 http://www.topografix.com/GPX/1/1/gpx.xsd" version="1.1" creator="VisuGPX - https://www.visugpx.com">
  <metadata>
    <name>Pic du Lion 2107 m</name>
    <desc><![CDATA[Très joli parcours, nous n\\\'avons pas utilisé les raquettes car l\'épaisseur de neige était  encore faible au 17/01/2016.

A recommander]]></desc>
  </metadata>
  <trk>
    <name><![CDATA[JAN-17-16 16:26:54]]></name>
    <trkseg>
      <trkpt lat="42.89537" lon="0.42604">
        <ele>978.28</ele>
        <time>2016-01-17T07:46:35Z</time>
      </trkpt>
      <trkpt lat="42.89534" lon="0.42603">
        <ele>1010.48</ele>
        <time>2016-01-17T08:02:20Z</time>
      </trkpt>
      <trkpt lat="42.89528" lon="0.42644">
        <ele>1013.85</ele>
        <time>2016-01-17T08:03:21Z</time>
      </trkpt>
      <trkpt lat="42.89498" lon="0.42688">
        <ele>1021.06</ele>
        <time>2016-01-17T08:04:08Z</time>
      </trkpt>
      <trkpt lat="42.89459" lon="0.42712">
        <ele>1028.27</ele>
        <time>2016-01-17T08:04:55Z</time>
      </trkpt>
      <trkpt lat="42.89417" lon="0.42736">
        <ele>1033.07</ele>
        <time>2016-01-17T08:05:38Z</time>
      </trkpt>
      <trkpt lat="42.8938" lon="0.42769">
        <ele>1038.84</ele>
        <time>2016-01-17T08:06:19Z</time>
      </trkpt>
      <trkpt lat="42.89343" lon="0.42803">
        <ele>1045.09</ele>
        <time>2016-01-17T08:07:02Z</time>
      </trkpt>
      <trkpt lat="42.89308" lon="0.42838">
        <ele>1050.86</ele>
        <time>2016-01-17T08:07:44Z</time>
      </trkpt>
      <trkpt lat="42.89275" lon="0.42876">
        <ele>1057.11</ele>
        <time>2016-01-17T08:08:26Z</time>
      </trkpt>
      <trkpt lat="42.89246" lon="0.42922">
        <ele>1063.36</ele>
        <time>2016-01-17T08:09:09Z</time>
      </trkpt>
      <trkpt lat="42.89225" lon="0.42976">
        <ele>1070.08</ele>
        <time>2016-01-17T08:09:49Z</time>
      </trkpt>
      <trkpt lat="42.89208" lon="0.42943">
        <ele>1074.41</ele>
        <time>2016-01-17T08:10:31Z</time>
      </trkpt>
      <trkpt lat="42.89192" lon="0.4296">
        <ele>1082.58</ele>
        <time>2016-01-17T08:14:10Z</time>
      </trkpt>
      <trkpt lat="42.89161" lon="0.42993">
        <ele>1092.2</ele>
        <time>2016-01-17T08:15:16Z</time>
      </trkpt>
      <trkpt lat="42.89129" lon="0.43035">
        <ele>1099.89</ele>
        <time>2016-01-17T08:16:13Z</time>
      </trkpt>
      <trkpt lat="42.89113" lon="0.4309">
        <ele>1106.13</ele>
        <time>2016-01-17T08:17:05Z</time>
      </trkpt>
      <trkpt lat="42.89106" lon="0.43147">
        <ele>1112.86</ele>
        <time>2016-01-17T08:17:58Z</time>
      </trkpt>
      <trkpt lat="42.89089" lon="0.43208">
        <ele>1117.67</ele>
        <time>2016-01-17T08:18:50Z</time>
      </trkpt>
      <trkpt lat="42.8907" lon="0.43267">
        <ele>1125.84</ele>
        <time>2016-01-17T08:19:49Z</time>
      </trkpt>
      <trkpt lat="42.8905" lon="0.43325">
        <ele>1135.45</ele>
        <time>2016-01-17T08:20:50Z</time>
      </trkpt>
      <trkpt lat="42.89039" lon="0.4339">
        <ele>1144.59</ele>
        <time>2016-01-17T08:21:54Z</time>
      </trkpt>
      <trkpt lat="42.89021" lon="0.4345">
        <ele>1155.16</ele>
        <time>2016-01-17T08:23:04Z</time>
      </trkpt>
      <trkpt lat="42.89007" lon="0.43508">
        <ele>1166.22</ele>
        <time>2016-01-17T08:24:15Z</time>
      </trkpt>
      <trkpt lat="42.88998" lon="0.43569">
        <ele>1177.27</ele>
        <time>2016-01-17T08:25:27Z</time>
      </trkpt>
      <trkpt lat="42.88993" lon="0.43635">
        <ele>1188.33</ele>
        <time>2016-01-17T08:26:32Z</time>
      </trkpt>
      <trkpt lat="42.88987" lon="0.43696">
        <ele>1199.38</ele>
        <time>2016-01-17T08:27:42Z</time>
      </trkpt>
      <trkpt lat="42.88982" lon="0.43757">
        <ele>1209.48</ele>
        <time>2016-01-17T08:28:45Z</time>
      </trkpt>
      <trkpt lat="42.88975" lon="0.43818">
        <ele>1218.61</ele>
        <time>2016-01-17T08:29:52Z</time>
      </trkpt>
      <trkpt lat="42.88971" lon="0.4388">
        <ele>1226.3</ele>
        <time>2016-01-17T08:30:47Z</time>
      </trkpt>
      <trkpt lat="42.88964" lon="0.43941">
        <ele>1232.07</ele>
        <time>2016-01-17T08:31:41Z</time>
      </trkpt>
      <trkpt lat="42.88957" lon="0.44009">
        <ele>1238.8</ele>
        <time>2016-01-17T08:32:40Z</time>
      </trkpt>
      <trkpt lat="42.88951" lon="0.44074">
        <ele>1245.04</ele>
        <time>2016-01-17T08:33:43Z</time>
      </trkpt>
      <trkpt lat="42.88927" lon="0.44124">
        <ele>1251.77</ele>
        <time>2016-01-17T08:34:38Z</time>
      </trkpt>
      <trkpt lat="42.88897" lon="0.44173">
        <ele>1257.54</ele>
        <time>2016-01-17T08:35:30Z</time>
      </trkpt>
      <trkpt lat="42.88856" lon="0.44218">
        <ele>1259.46</ele>
        <time>2016-01-17T08:36:23Z</time>
      </trkpt>
      <trkpt lat="42.88824" lon="0.44261">
        <ele>1263.31</ele>
        <time>2016-01-17T08:37:12Z</time>
      </trkpt>
      <trkpt lat="42.88795" lon="0.44314">
        <ele>1267.64</ele>
        <time>2016-01-17T08:38:02Z</time>
      </trkpt>
      <trkpt lat="42.88774" lon="0.4437">
        <ele>1272.44</ele>
        <time>2016-01-17T08:38:55Z</time>
      </trkpt>
      <trkpt lat="42.8875" lon="0.44426">
        <ele>1276.29</ele>
        <time>2016-01-17T08:39:48Z</time>
      </trkpt>
      <trkpt lat="42.88728" lon="0.44481">
        <ele>1282.54</ele>
        <time>2016-01-17T08:40:46Z</time>
      </trkpt>
      <trkpt lat="42.88698" lon="0.44533">
        <ele>1287.82</ele>
        <time>2016-01-17T08:41:47Z</time>
      </trkpt>
      <trkpt lat="42.88666" lon="0.44586">
        <ele>1292.15</ele>
        <time>2016-01-17T08:42:41Z</time>
      </trkpt>
      <trkpt lat="42.88636" lon="0.44638">
        <ele>1298.4</ele>
        <time>2016-01-17T08:43:46Z</time>
      </trkpt>
      <trkpt lat="42.88601" lon="0.44685">
        <ele>1307.05</ele>
        <time>2016-01-17T08:44:59Z</time>
      </trkpt>
      <trkpt lat="42.88562" lon="0.44729">
        <ele>1316.66</ele>
        <time>2016-01-17T08:46:17Z</time>
      </trkpt>
      <trkpt lat="42.88523" lon="0.44768">
        <ele>1326.28</ele>
        <time>2016-01-17T08:47:26Z</time>
      </trkpt>
      <trkpt lat="42.88492" lon="0.44804">
        <ele>1330.6</ele>
        <time>2016-01-17T08:51:34Z</time>
      </trkpt>
      <trkpt lat="42.88457" lon="0.44844">
        <ele>1338.77</ele>
        <time>2016-01-17T08:52:48Z</time>
      </trkpt>
      <trkpt lat="42.88432" lon="0.44879">
        <ele>1346.94</ele>
        <time>2016-01-17T08:54:08Z</time>
      </trkpt>
      <trkpt lat="42.884" lon="0.44925">
        <ele>1352.71</ele>
        <time>2016-01-17T08:54:59Z</time>
      </trkpt>
      <trkpt lat="42.88368" lon="0.4497">
        <ele>1355.6</ele>
        <time>2016-01-17T08:55:43Z</time>
      </trkpt>
      <trkpt lat="42.88349" lon="0.45025">
        <ele>1357.04</ele>
        <time>2016-01-17T08:56:27Z</time>
      </trkpt>
      <trkpt lat="42.88326" lon="0.45084">
        <ele>1358.96</ele>
        <time>2016-01-17T08:57:08Z</time>
      </trkpt>
      <trkpt lat="42.88305" lon="0.4514">
        <ele>1359.92</ele>
        <time>2016-01-17T08:57:49Z</time>
      </trkpt>
      <trkpt lat="42.88279" lon="0.45191">
        <ele>1362.81</ele>
        <time>2016-01-17T08:58:32Z</time>
      </trkpt>
      <trkpt lat="42.88255" lon="0.45246">
        <ele>1367.61</ele>
        <time>2016-01-17T08:59:21Z</time>
      </trkpt>
      <trkpt lat="42.88229" lon="0.45303">
        <ele>1374.34</ele>
        <time>2016-01-17T09:00:13Z</time>
      </trkpt>
      <trkpt lat="42.88202" lon="0.45358">
        <ele>1379.63</ele>
        <time>2016-01-17T09:01:09Z</time>
      </trkpt>
      <trkpt lat="42.88171" lon="0.45415">
        <ele>1384.92</ele>
        <time>2016-01-17T09:02:01Z</time>
      </trkpt>
      <trkpt lat="42.88128" lon="0.45455">
        <ele>1389.24</ele>
        <time>2016-01-17T09:02:49Z</time>
      </trkpt>
      <trkpt lat="42.88092" lon="0.45496">
        <ele>1392.61</ele>
        <time>2016-01-17T09:03:33Z</time>
      </trkpt>
      <trkpt lat="42.8805" lon="0.45528">
        <ele>1394.53</ele>
        <time>2016-01-17T09:04:14Z</time>
      </trkpt>
      <trkpt lat="42.88011" lon="0.45548">
        <ele>1396.93</ele>
        <time>2016-01-17T09:04:56Z</time>
      </trkpt>
      <trkpt lat="42.87961" lon="0.45573">
        <ele>1397.41</ele>
        <time>2016-01-17T09:05:41Z</time>
      </trkpt>
      <trkpt lat="42.87913" lon="0.45597">
        <ele>1399.34</ele>
        <time>2016-01-17T09:06:38Z</time>
      </trkpt>
      <trkpt lat="42.87868" lon="0.4562">
        <ele>1401.74</ele>
        <time>2016-01-17T09:07:25Z</time>
      </trkpt>
      <trkpt lat="42.87823" lon="0.45629">
        <ele>1406.55</ele>
        <time>2016-01-17T09:08:09Z</time>
      </trkpt>
      <trkpt lat="42.87781" lon="0.45647">
        <ele>1410.87</ele>
        <time>2016-01-17T09:08:57Z</time>
      </trkpt>
      <trkpt lat="42.87736" lon="0.45665">
        <ele>1414.72</ele>
        <time>2016-01-17T09:09:44Z</time>
      </trkpt>
      <trkpt lat="42.87692" lon="0.45682">
        <ele>1417.6</ele>
        <time>2016-01-17T09:10:29Z</time>
      </trkpt>
      <trkpt lat="42.87649" lon="0.45678">
        <ele>1421.93</ele>
        <time>2016-01-17T09:11:21Z</time>
      </trkpt>
      <trkpt lat="42.87605" lon="0.45665">
        <ele>1430.1</ele>
        <time>2016-01-17T09:12:34Z</time>
      </trkpt>
      <trkpt lat="42.87563" lon="0.45669">
        <ele>1437.79</ele>
        <time>2016-01-17T09:13:53Z</time>
      </trkpt>
      <trkpt lat="42.87515" lon="0.45681">
        <ele>1448.84</ele>
        <time>2016-01-17T09:15:16Z</time>
      </trkpt>
      <trkpt lat="42.87477" lon="0.45669">
        <ele>1462.78</ele>
        <time>2016-01-17T09:16:57Z</time>
      </trkpt>
      <trkpt lat="42.87433" lon="0.45646">
        <ele>1469.99</ele>
        <time>2016-01-17T09:18:07Z</time>
      </trkpt>
      <trkpt lat="42.87386" lon="0.45655">
        <ele>1476.24</ele>
        <time>2016-01-17T09:19:11Z</time>
      </trkpt>
      <trkpt lat="42.87342" lon="0.45676">
        <ele>1482.01</ele>
        <time>2016-01-17T09:20:09Z</time>
      </trkpt>
      <trkpt lat="42.87309" lon="0.45669">
        <ele>1482.97</ele>
        <time>2016-01-17T09:27:38Z</time>
      </trkpt>
      <trkpt lat="42.87271" lon="0.45699">
        <ele>1485.37</ele>
        <time>2016-01-17T09:28:44Z</time>
      </trkpt>
      <trkpt lat="42.87233" lon="0.45726">
        <ele>1489.22</ele>
        <time>2016-01-17T09:29:36Z</time>
      </trkpt>
      <trkpt lat="42.87196" lon="0.45759">
        <ele>1492.58</ele>
        <time>2016-01-17T09:30:31Z</time>
      </trkpt>
      <trkpt lat="42.87164" lon="0.45798">
        <ele>1496.91</ele>
        <time>2016-01-17T09:31:26Z</time>
      </trkpt>
      <trkpt lat="42.87131" lon="0.45834">
        <ele>1503.64</ele>
        <time>2016-01-17T09:32:25Z</time>
      </trkpt>
      <trkpt lat="42.87106" lon="0.4588">
        <ele>1507.97</ele>
        <time>2016-01-17T09:33:24Z</time>
      </trkpt>
      <trkpt lat="42.87076" lon="0.45922">
        <ele>1512.29</ele>
        <time>2016-01-17T09:34:25Z</time>
      </trkpt>
      <trkpt lat="42.87052" lon="0.45971">
        <ele>1516.62</ele>
        <time>2016-01-17T09:35:19Z</time>
      </trkpt>
      <trkpt lat="42.87041" lon="0.46027">
        <ele>1521.9</ele>
        <time>2016-01-17T09:36:09Z</time>
      </trkpt>
      <trkpt lat="42.87003" lon="0.46055">
        <ele>1529.11</ele>
        <time>2016-01-17T09:37:21Z</time>
      </trkpt>
      <trkpt lat="42.86964" lon="0.46079">
        <ele>1538.73</ele>
        <time>2016-01-17T09:38:33Z</time>
      </trkpt>
      <trkpt lat="42.86927" lon="0.46108">
        <ele>1550.74</ele>
        <time>2016-01-17T09:39:55Z</time>
      </trkpt>
      <trkpt lat="42.86889" lon="0.46126">
        <ele>1562.28</ele>
        <time>2016-01-17T09:41:20Z</time>
      </trkpt>
      <trkpt lat="42.86845" lon="0.46125">
        <ele>1569.97</ele>
        <time>2016-01-17T09:42:37Z</time>
      </trkpt>
      <trkpt lat="42.86804" lon="0.46135">
        <ele>1578.62</ele>
        <time>2016-01-17T09:43:52Z</time>
      </trkpt>
      <trkpt lat="42.86765" lon="0.46153">
        <ele>1583.43</ele>
        <time>2016-01-17T09:44:58Z</time>
      </trkpt>
      <trkpt lat="42.86726" lon="0.46175">
        <ele>1588.72</ele>
        <time>2016-01-17T09:46:07Z</time>
      </trkpt>
      <trkpt lat="42.86689" lon="0.46184">
        <ele>1597.85</ele>
        <time>2016-01-17T09:47:23Z</time>
      </trkpt>
      <trkpt lat="42.86648" lon="0.46197">
        <ele>1602.17</ele>
        <time>2016-01-17T09:48:32Z</time>
      </trkpt>
      <trkpt lat="42.86611" lon="0.46191">
        <ele>1608.9</ele>
        <time>2016-01-17T09:49:48Z</time>
      </trkpt>
      <trkpt lat="42.86591" lon="0.46156">
        <ele>1618.04</ele>
        <time>2016-01-17T09:51:47Z</time>
      </trkpt>
      <trkpt lat="42.86561" lon="0.46146">
        <ele>1625.25</ele>
        <time>2016-01-17T09:53:07Z</time>
      </trkpt>
      <trkpt lat="42.86548" lon="0.46126">
        <ele>1634.86</ele>
        <time>2016-01-17T09:54:29Z</time>
      </trkpt>
      <trkpt lat="42.86525" lon="0.4612">
        <ele>1648.32</ele>
        <time>2016-01-17T09:56:15Z</time>
      </trkpt>
      <trkpt lat="42.86502" lon="0.46111">
        <ele>1662.74</ele>
        <time>2016-01-17T09:58:01Z</time>
      </trkpt>
      <trkpt lat="42.86464" lon="0.461">
        <ele>1674.27</ele>
        <time>2016-01-17T09:59:29Z</time>
      </trkpt>
      <trkpt lat="42.86426" lon="0.4608">
        <ele>1681</ele>
        <time>2016-01-17T10:00:46Z</time>
      </trkpt>
      <trkpt lat="42.86395" lon="0.46077">
        <ele>1690.14</ele>
        <time>2016-01-17T10:02:29Z</time>
      </trkpt>
      <trkpt lat="42.86365" lon="0.46057">
        <ele>1698.79</ele>
        <time>2016-01-17T10:04:19Z</time>
      </trkpt>
      <trkpt lat="42.86328" lon="0.4605">
        <ele>1713.69</ele>
        <time>2016-01-17T10:06:17Z</time>
      </trkpt>
      <trkpt lat="42.86292" lon="0.46072">
        <ele>1723.78</ele>
        <time>2016-01-17T10:07:44Z</time>
      </trkpt>
      <trkpt lat="42.86261" lon="0.46086">
        <ele>1739.16</ele>
        <time>2016-01-17T10:09:35Z</time>
      </trkpt>
      <trkpt lat="42.86233" lon="0.4609">
        <ele>1755.99</ele>
        <time>2016-01-17T10:12:08Z</time>
      </trkpt>
      <trkpt lat="42.86207" lon="0.46084">
        <ele>1766.08</ele>
        <time>2016-01-17T10:13:43Z</time>
      </trkpt>
      <trkpt lat="42.86173" lon="0.46061">
        <ele>1768.96</ele>
        <time>2016-01-17T10:15:27Z</time>
      </trkpt>
      <trkpt lat="42.86164" lon="0.46111">
        <ele>1770.89</ele>
        <time>2016-01-17T10:16:59Z</time>
      </trkpt>
      <trkpt lat="42.8616" lon="0.46139">
        <ele>1771.85</ele>
        <time>2016-01-17T10:26:52Z</time>
      </trkpt>
      <trkpt lat="42.86165" lon="0.46168">
        <ele>1770.41</ele>
        <time>2016-01-17T10:39:34Z</time>
      </trkpt>
      <trkpt lat="42.86162" lon="0.46225">
        <ele>1769.92</ele>
        <time>2016-01-17T10:40:29Z</time>
      </trkpt>
      <trkpt lat="42.86136" lon="0.4625">
        <ele>1780.02</ele>
        <time>2016-01-17T10:41:47Z</time>
      </trkpt>
      <trkpt lat="42.861" lon="0.46271">
        <ele>1788.19</ele>
        <time>2016-01-17T10:43:00Z</time>
      </trkpt>
      <trkpt lat="42.86088" lon="0.46314">
        <ele>1802.13</ele>
        <time>2016-01-17T10:44:41Z</time>
      </trkpt>
      <trkpt lat="42.86065" lon="0.46335">
        <ele>1816.07</ele>
        <time>2016-01-17T10:46:36Z</time>
      </trkpt>
      <trkpt lat="42.86057" lon="0.46379">
        <ele>1830.97</ele>
        <time>2016-01-17T10:48:51Z</time>
      </trkpt>
      <trkpt lat="42.86031" lon="0.46399">
        <ele>1848.75</ele>
        <time>2016-01-17T10:52:07Z</time>
      </trkpt>
      <trkpt lat="42.86027" lon="0.46422">
        <ele>1859.33</ele>
        <time>2016-01-17T11:12:43Z</time>
      </trkpt>
      <trkpt lat="42.86043" lon="0.46456">
        <ele>1872.3</ele>
        <time>2016-01-17T11:15:28Z</time>
      </trkpt>
      <trkpt lat="42.86031" lon="0.46489">
        <ele>1891.53</ele>
        <time>2016-01-17T11:17:49Z</time>
      </trkpt>
      <trkpt lat="42.85997" lon="0.46499">
        <ele>1907.39</ele>
        <time>2016-01-17T11:20:31Z</time>
      </trkpt>
      <trkpt lat="42.85961" lon="0.46518">
        <ele>1923.25</ele>
        <time>2016-01-17T11:23:02Z</time>
      </trkpt>
      <trkpt lat="42.85942" lon="0.46548">
        <ele>1937.67</ele>
        <time>2016-01-17T11:25:23Z</time>
      </trkpt>
      <trkpt lat="42.85918" lon="0.4658">
        <ele>1953.54</ele>
        <time>2016-01-17T11:27:37Z</time>
      </trkpt>
      <trkpt lat="42.85889" lon="0.46601">
        <ele>1969.88</ele>
        <time>2016-01-17T11:30:21Z</time>
      </trkpt>
      <trkpt lat="42.85862" lon="0.46621">
        <ele>1985.26</ele>
        <time>2016-01-17T11:33:10Z</time>
      </trkpt>
      <trkpt lat="42.85831" lon="0.4662">
        <ele>2003.52</ele>
        <time>2016-01-17T11:37:25Z</time>
      </trkpt>
      <trkpt lat="42.85785" lon="0.46617">
        <ele>2020.35</ele>
        <time>2016-01-17T11:40:22Z</time>
      </trkpt>
      <trkpt lat="42.85745" lon="0.4661">
        <ele>2030.92</ele>
        <time>2016-01-17T11:42:39Z</time>
      </trkpt>
      <trkpt lat="42.85701" lon="0.46594">
        <ele>2031.4</ele>
        <time>2016-01-17T11:44:06Z</time>
      </trkpt>
      <trkpt lat="42.85655" lon="0.46594">
        <ele>2029.48</ele>
        <time>2016-01-17T11:45:18Z</time>
      </trkpt>
      <trkpt lat="42.85615" lon="0.46574">
        <ele>2025.64</ele>
        <time>2016-01-17T11:46:17Z</time>
      </trkpt>
      <trkpt lat="42.85592" lon="0.46549">
        <ele>2031.88</ele>
        <time>2016-01-17T11:56:42Z</time>
      </trkpt>
      <trkpt lat="42.85557" lon="0.46523">
        <ele>2040.05</ele>
        <time>2016-01-17T11:58:12Z</time>
      </trkpt>
      <trkpt lat="42.85516" lon="0.46506">
        <ele>2045.82</ele>
        <time>2016-01-17T11:59:22Z</time>
      </trkpt>
      <trkpt lat="42.8548" lon="0.46485">
        <ele>2056.88</ele>
        <time>2016-01-17T12:01:01Z</time>
      </trkpt>
      <trkpt lat="42.85451" lon="0.46467">
        <ele>2072.74</ele>
        <time>2016-01-17T12:03:11Z</time>
      </trkpt>
      <trkpt lat="42.85421" lon="0.46432">
        <ele>2085.72</ele>
        <time>2016-01-17T12:05:10Z</time>
      </trkpt>
      <trkpt lat="42.85393" lon="0.46385">
        <ele>2083.79</ele>
        <time>2016-01-17T12:06:53Z</time>
      </trkpt>
      <trkpt lat="42.85375" lon="0.46331">
        <ele>2079.47</ele>
        <time>2016-01-17T12:07:41Z</time>
      </trkpt>
      <trkpt lat="42.8535" lon="0.46283">
        <ele>2079.95</ele>
        <time>2016-01-17T12:08:49Z</time>
      </trkpt>
      <trkpt lat="42.85325" lon="0.46239">
        <ele>2079.47</ele>
        <time>2016-01-17T12:10:30Z</time>
      </trkpt>
      <trkpt lat="42.85294" lon="0.46194">
        <ele>2074.18</ele>
        <time>2016-01-17T12:11:54Z</time>
      </trkpt>
      <trkpt lat="42.85272" lon="0.46156">
        <ele>2076.1</ele>
        <time>2016-01-17T12:13:15Z</time>
      </trkpt>
      <trkpt lat="42.85246" lon="0.46125">
        <ele>2086.2</ele>
        <time>2016-01-17T12:15:00Z</time>
      </trkpt>
      <trkpt lat="42.85243" lon="0.4611">
        <ele>2101.1</ele>
        <time>2016-01-17T12:17:12Z</time>
      </trkpt>
      <trkpt lat="42.85204" lon="0.46034">
        <ele>2103.5</ele>
        <time>2016-01-17T12:20:57Z</time>
      </trkpt>
      <trkpt lat="42.85195" lon="0.46032">
        <ele>2104.46</ele>
        <time>2016-01-17T13:10:34Z</time>
      </trkpt>
      <trkpt lat="42.85214" lon="0.46045">
        <ele>2100.14</ele>
        <time>2016-01-17T13:12:19Z</time>
      </trkpt>
      <trkpt lat="42.85212" lon="0.45985">
        <ele>2095.81</ele>
        <time>2016-01-17T13:13:12Z</time>
      </trkpt>
      <trkpt lat="42.85236" lon="0.45939">
        <ele>2082.83</ele>
        <time>2016-01-17T13:14:12Z</time>
      </trkpt>
      <trkpt lat="42.85257" lon="0.45907">
        <ele>2065.05</ele>
        <time>2016-01-17T13:15:45Z</time>
      </trkpt>
      <trkpt lat="42.85276" lon="0.45878">
        <ele>2043.42</ele>
        <time>2016-01-17T13:18:03Z</time>
      </trkpt>
      <trkpt lat="42.85313" lon="0.45868">
        <ele>2026.6</ele>
        <time>2016-01-17T13:19:22Z</time>
      </trkpt>
      <trkpt lat="42.85335" lon="0.45911">
        <ele>2013.62</ele>
        <time>2016-01-17T13:20:44Z</time>
      </trkpt>
      <trkpt lat="42.85359" lon="0.45946">
        <ele>2001.6</ele>
        <time>2016-01-17T13:25:38Z</time>
      </trkpt>
      <trkpt lat="42.8539" lon="0.45991">
        <ele>1986.22</ele>
        <time>2016-01-17T13:26:25Z</time>
      </trkpt>
      <trkpt lat="42.85421" lon="0.46031">
        <ele>1973.24</ele>
        <time>2016-01-17T13:27:09Z</time>
      </trkpt>
      <trkpt lat="42.8546" lon="0.46065">
        <ele>1962.67</ele>
        <time>2016-01-17T13:28:00Z</time>
      </trkpt>
      <trkpt lat="42.85493" lon="0.46101">
        <ele>1954.5</ele>
        <time>2016-01-17T13:28:57Z</time>
      </trkpt>
      <trkpt lat="42.85524" lon="0.46147">
        <ele>1941.04</ele>
        <time>2016-01-17T13:29:51Z</time>
      </trkpt>
      <trkpt lat="42.85557" lon="0.46185">
        <ele>1928.54</ele>
        <time>2016-01-17T13:30:35Z</time>
      </trkpt>
      <trkpt lat="42.85594" lon="0.46216">
        <ele>1915.08</ele>
        <time>2016-01-17T13:31:26Z</time>
      </trkpt>
      <trkpt lat="42.85635" lon="0.46238">
        <ele>1899.22</ele>
        <time>2016-01-17T13:32:16Z</time>
      </trkpt>
      <trkpt lat="42.85678" lon="0.46258">
        <ele>1885.28</ele>
        <time>2016-01-17T13:33:09Z</time>
      </trkpt>
      <trkpt lat="42.85722" lon="0.46268">
        <ele>1866.54</ele>
        <time>2016-01-17T13:33:57Z</time>
      </trkpt>
      <trkpt lat="42.85766" lon="0.46278">
        <ele>1849.71</ele>
        <time>2016-01-17T13:34:45Z</time>
      </trkpt>
      <trkpt lat="42.8581" lon="0.46292">
        <ele>1835.77</ele>
        <time>2016-01-17T13:35:31Z</time>
      </trkpt>
      <trkpt lat="42.8586" lon="0.46293">
        <ele>1823.28</ele>
        <time>2016-01-17T13:36:15Z</time>
      </trkpt>
      <trkpt lat="42.85905" lon="0.4628">
        <ele>1812.22</ele>
        <time>2016-01-17T13:36:55Z</time>
      </trkpt>
      <trkpt lat="42.85948" lon="0.46268">
        <ele>1804.53</ele>
        <time>2016-01-17T13:37:36Z</time>
      </trkpt>
      <trkpt lat="42.85994" lon="0.46259">
        <ele>1791.55</ele>
        <time>2016-01-17T13:38:21Z</time>
      </trkpt>
      <trkpt lat="42.86038" lon="0.46253">
        <ele>1781.94</ele>
        <time>2016-01-17T13:39:03Z</time>
      </trkpt>
      <trkpt lat="42.86083" lon="0.46237">
        <ele>1773.29</ele>
        <time>2016-01-17T13:39:44Z</time>
      </trkpt>
      <trkpt lat="42.86128" lon="0.46213">
        <ele>1768</ele>
        <time>2016-01-17T13:40:27Z</time>
      </trkpt>
      <trkpt lat="42.86155" lon="0.46165">
        <ele>1765.12</ele>
        <time>2016-01-17T13:41:17Z</time>
      </trkpt>
      <trkpt lat="42.86159" lon="0.46134">
        <ele>1769.92</ele>
        <time>2016-01-17T14:03:03Z</time>
      </trkpt>
      <trkpt lat="42.86168" lon="0.46076">
        <ele>1760.79</ele>
        <time>2016-01-17T14:04:08Z</time>
      </trkpt>
      <trkpt lat="42.86201" lon="0.46083">
        <ele>1763.2</ele>
        <time>2016-01-17T14:05:15Z</time>
      </trkpt>
      <trkpt lat="42.86241" lon="0.46095">
        <ele>1744.45</ele>
        <time>2016-01-17T14:06:17Z</time>
      </trkpt>
      <trkpt lat="42.86273" lon="0.4608">
        <ele>1725.22</ele>
        <time>2016-01-17T14:07:18Z</time>
      </trkpt>
      <trkpt lat="42.8631" lon="0.46056">
        <ele>1712.25</ele>
        <time>2016-01-17T14:08:03Z</time>
      </trkpt>
      <trkpt lat="42.86347" lon="0.46057">
        <ele>1698.31</ele>
        <time>2016-01-17T14:08:53Z</time>
      </trkpt>
      <trkpt lat="42.86389" lon="0.46076">
        <ele>1685.81</ele>
        <time>2016-01-17T14:09:40Z</time>
      </trkpt>
      <trkpt lat="42.86429" lon="0.46079">
        <ele>1673.79</ele>
        <time>2016-01-17T14:10:31Z</time>
      </trkpt>
      <trkpt lat="42.86469" lon="0.46104">
        <ele>1666.58</ele>
        <time>2016-01-17T14:11:12Z</time>
      </trkpt>
      <trkpt lat="42.86515" lon="0.46109">
        <ele>1650.24</ele>
        <time>2016-01-17T14:12:12Z</time>
      </trkpt>
      <trkpt lat="42.86548" lon="0.46122">
        <ele>1632.94</ele>
        <time>2016-01-17T14:13:11Z</time>
      </trkpt>
      <trkpt lat="42.86558" lon="0.46146">
        <ele>1621.4</ele>
        <time>2016-01-17T14:13:58Z</time>
      </trkpt>
      <trkpt lat="42.86592" lon="0.46165">
        <ele>1611.79</ele>
        <time>2016-01-17T14:14:44Z</time>
      </trkpt>
      <trkpt lat="42.86628" lon="0.46195">
        <ele>1601.69</ele>
        <time>2016-01-17T14:15:31Z</time>
      </trkpt>
      <trkpt lat="42.86662" lon="0.46191">
        <ele>1594.48</ele>
        <time>2016-01-17T14:23:17Z</time>
      </trkpt>
      <trkpt lat="42.86708" lon="0.46178">
        <ele>1588.24</ele>
        <time>2016-01-17T14:23:59Z</time>
      </trkpt>
      <trkpt lat="42.86748" lon="0.46159">
        <ele>1579.1</ele>
        <time>2016-01-17T14:24:40Z</time>
      </trkpt>
      <trkpt lat="42.8679" lon="0.46137">
        <ele>1574.3</ele>
        <time>2016-01-17T14:25:19Z</time>
      </trkpt>
      <trkpt lat="42.86831" lon="0.46127">
        <ele>1566.12</ele>
        <time>2016-01-17T14:25:55Z</time>
      </trkpt>
      <trkpt lat="42.86875" lon="0.46128">
        <ele>1556.99</ele>
        <time>2016-01-17T14:26:35Z</time>
      </trkpt>
      <trkpt lat="42.86915" lon="0.4611">
        <ele>1545.94</ele>
        <time>2016-01-17T14:27:12Z</time>
      </trkpt>
      <trkpt lat="42.86962" lon="0.46077">
        <ele>1533.92</ele>
        <time>2016-01-17T14:27:47Z</time>
      </trkpt>
      <trkpt lat="42.87002" lon="0.46051">
        <ele>1524.31</ele>
        <time>2016-01-17T14:28:25Z</time>
      </trkpt>
      <trkpt lat="42.87035" lon="0.46015">
        <ele>1516.62</ele>
        <time>2016-01-17T14:29:00Z</time>
      </trkpt>
      <trkpt lat="42.87051" lon="0.45963">
        <ele>1509.89</ele>
        <time>2016-01-17T14:29:39Z</time>
      </trkpt>
      <trkpt lat="42.87077" lon="0.45915">
        <ele>1507.48</ele>
        <time>2016-01-17T14:30:16Z</time>
      </trkpt>
      <trkpt lat="42.87103" lon="0.45865">
        <ele>1502.2</ele>
        <time>2016-01-17T14:30:51Z</time>
      </trkpt>
      <trkpt lat="42.87134" lon="0.4582">
        <ele>1496.91</ele>
        <time>2016-01-17T14:31:27Z</time>
      </trkpt>
      <trkpt lat="42.87168" lon="0.45778">
        <ele>1491.14</ele>
        <time>2016-01-17T14:32:04Z</time>
      </trkpt>
      <trkpt lat="42.87205" lon="0.4574">
        <ele>1486.82</ele>
        <time>2016-01-17T14:32:39Z</time>
      </trkpt>
      <trkpt lat="42.87247" lon="0.45715">
        <ele>1483.45</ele>
        <time>2016-01-17T14:33:14Z</time>
      </trkpt>
      <trkpt lat="42.87287" lon="0.45688">
        <ele>1480.09</ele>
        <time>2016-01-17T14:33:48Z</time>
      </trkpt>
      <trkpt lat="42.87331" lon="0.45675">
        <ele>1477.2</ele>
        <time>2016-01-17T14:34:24Z</time>
      </trkpt>
      <trkpt lat="42.87373" lon="0.45671">
        <ele>1472.4</ele>
        <time>2016-01-17T14:34:59Z</time>
      </trkpt>
      <trkpt lat="42.87414" lon="0.45652">
        <ele>1468.07</ele>
        <time>2016-01-17T14:35:36Z</time>
      </trkpt>
      <trkpt lat="42.87474" lon="0.45665">
        <ele>1460.86</ele>
        <time>2016-01-17T14:36:20Z</time>
      </trkpt>
      <trkpt lat="42.87513" lon="0.45669">
        <ele>1450.77</ele>
        <time>2016-01-17T14:38:59Z</time>
      </trkpt>
      <trkpt lat="42.87558" lon="0.45671">
        <ele>1436.83</ele>
        <time>2016-01-17T14:39:47Z</time>
      </trkpt>
      <trkpt lat="42.87615" lon="0.45667">
        <ele>1428.66</ele>
        <time>2016-01-17T14:40:31Z</time>
      </trkpt>
      <trkpt lat="42.87659" lon="0.45681">
        <ele>1420.49</ele>
        <time>2016-01-17T14:41:12Z</time>
      </trkpt>
      <trkpt lat="42.87701" lon="0.4568">
        <ele>1416.64</ele>
        <time>2016-01-17T14:42:37Z</time>
      </trkpt>
      <trkpt lat="42.87749" lon="0.45662">
        <ele>1413.28</ele>
        <time>2016-01-17T14:43:14Z</time>
      </trkpt>
      <trkpt lat="42.87788" lon="0.45643">
        <ele>1408.95</ele>
        <time>2016-01-17T14:43:48Z</time>
      </trkpt>
      <trkpt lat="42.87836" lon="0.45629">
        <ele>1405.1</ele>
        <time>2016-01-17T14:44:23Z</time>
      </trkpt>
      <trkpt lat="42.87876" lon="0.45615">
        <ele>1403.18</ele>
        <time>2016-01-17T14:44:58Z</time>
      </trkpt>
      <trkpt lat="42.87914" lon="0.45594">
        <ele>1399.34</ele>
        <time>2016-01-17T14:45:34Z</time>
      </trkpt>
      <trkpt lat="42.87971" lon="0.45573">
        <ele>1396.93</ele>
        <time>2016-01-17T14:46:19Z</time>
      </trkpt>
      <trkpt lat="42.88029" lon="0.45545">
        <ele>1395.97</ele>
        <time>2016-01-17T14:47:08Z</time>
      </trkpt>
      <trkpt lat="42.88079" lon="0.45514">
        <ele>1393.57</ele>
        <time>2016-01-17T14:47:49Z</time>
      </trkpt>
      <trkpt lat="42.88115" lon="0.45462">
        <ele>1391.65</ele>
        <time>2016-01-17T14:48:24Z</time>
      </trkpt>
      <trkpt lat="42.88151" lon="0.45426">
        <ele>1388.76</ele>
        <time>2016-01-17T14:48:57Z</time>
      </trkpt>
      <trkpt lat="42.88178" lon="0.45376">
        <ele>1382.99</ele>
        <time>2016-01-17T14:49:30Z</time>
      </trkpt>
      <trkpt lat="42.88206" lon="0.45325">
        <ele>1378.19</ele>
        <time>2016-01-17T14:50:03Z</time>
      </trkpt>
      <trkpt lat="42.88229" lon="0.45276">
        <ele>1372.9</ele>
        <time>2016-01-17T14:50:36Z</time>
      </trkpt>
      <trkpt lat="42.88255" lon="0.45221">
        <ele>1368.57</ele>
        <time>2016-01-17T14:51:09Z</time>
      </trkpt>
      <trkpt lat="42.88277" lon="0.45162">
        <ele>1364.73</ele>
        <time>2016-01-17T14:51:42Z</time>
      </trkpt>
      <trkpt lat="42.88306" lon="0.45113">
        <ele>1363.29</ele>
        <time>2016-01-17T14:52:17Z</time>
      </trkpt>
      <trkpt lat="42.88325" lon="0.45055">
        <ele>1362.81</ele>
        <time>2016-01-17T14:52:52Z</time>
      </trkpt>
      <trkpt lat="42.88346" lon="0.44997">
        <ele>1360.4</ele>
        <time>2016-01-17T14:53:27Z</time>
      </trkpt>
      <trkpt lat="42.88373" lon="0.44951">
        <ele>1358</ele>
        <time>2016-01-17T14:54:00Z</time>
      </trkpt>
      <trkpt lat="42.88403" lon="0.44903">
        <ele>1353.67</ele>
        <time>2016-01-17T14:54:33Z</time>
      </trkpt>
      <trkpt lat="42.88434" lon="0.44883">
        <ele>1346.46</ele>
        <time>2016-01-17T14:55:15Z</time>
      </trkpt>
      <trkpt lat="42.88456" lon="0.44835">
        <ele>1340.7</ele>
        <time>2016-01-17T14:56:35Z</time>
      </trkpt>
      <trkpt lat="42.88494" lon="0.448">
        <ele>1332.52</ele>
        <time>2016-01-17T14:57:18Z</time>
      </trkpt>
      <trkpt lat="42.88527" lon="0.4475">
        <ele>1326.28</ele>
        <time>2016-01-17T14:57:59Z</time>
      </trkpt>
      <trkpt lat="42.88565" lon="0.44709">
        <ele>1317.14</ele>
        <time>2016-01-17T14:58:42Z</time>
      </trkpt>
      <trkpt lat="42.8861" lon="0.44669">
        <ele>1307.53</ele>
        <time>2016-01-17T14:59:24Z</time>
      </trkpt>
      <trkpt lat="42.88648" lon="0.4462">
        <ele>1299.36</ele>
        <time>2016-01-17T15:00:06Z</time>
      </trkpt>
      <trkpt lat="42.88675" lon="0.44565">
        <ele>1295.99</ele>
        <time>2016-01-17T15:00:42Z</time>
      </trkpt>
      <trkpt lat="42.88709" lon="0.44517">
        <ele>1292.15</ele>
        <time>2016-01-17T15:01:18Z</time>
      </trkpt>
      <trkpt lat="42.88736" lon="0.44457">
        <ele>1285.9</ele>
        <time>2016-01-17T15:01:56Z</time>
      </trkpt>
      <trkpt lat="42.88758" lon="0.44393">
        <ele>1279.65</ele>
        <time>2016-01-17T15:02:33Z</time>
      </trkpt>
      <trkpt lat="42.88781" lon="0.44335">
        <ele>1276.77</ele>
        <time>2016-01-17T15:03:10Z</time>
      </trkpt>
      <trkpt lat="42.88807" lon="0.44287">
        <ele>1272.44</ele>
        <time>2016-01-17T15:03:47Z</time>
      </trkpt>
      <trkpt lat="42.88837" lon="0.44239">
        <ele>1269.56</ele>
        <time>2016-01-17T15:04:23Z</time>
      </trkpt>
      <trkpt lat="42.8888" lon="0.44193">
        <ele>1265.23</ele>
        <time>2016-01-17T15:05:05Z</time>
      </trkpt>
      <trkpt lat="42.88914" lon="0.44136">
        <ele>1261.39</ele>
        <time>2016-01-17T15:05:46Z</time>
      </trkpt>
      <trkpt lat="42.88951" lon="0.44093">
        <ele>1256.1</ele>
        <time>2016-01-17T15:06:25Z</time>
      </trkpt>
      <trkpt lat="42.88958" lon="0.44019">
        <ele>1249.37</ele>
        <time>2016-01-17T15:07:07Z</time>
      </trkpt>
      <trkpt lat="42.88965" lon="0.43939">
        <ele>1244.08</ele>
        <time>2016-01-17T15:07:51Z</time>
      </trkpt>
      <trkpt lat="42.88992" lon="0.43895">
        <ele>1238.32</ele>
        <time>2016-01-17T15:08:27Z</time>
      </trkpt>
      <trkpt lat="42.88989" lon="0.43813">
        <ele>1229.66</ele>
        <time>2016-01-17T15:09:08Z</time>
      </trkpt>
      <trkpt lat="42.89012" lon="0.43752">
        <ele>1219.09</ele>
        <time>2016-01-17T15:09:52Z</time>
      </trkpt>
      <trkpt lat="42.89033" lon="0.43686">
        <ele>1205.15</ele>
        <time>2016-01-17T15:10:40Z</time>
      </trkpt>
      <trkpt lat="42.89026" lon="0.43582">
        <ele>1192.17</ele>
        <time>2016-01-17T15:11:32Z</time>
      </trkpt>
      <trkpt lat="42.89041" lon="0.43493">
        <ele>1179.67</ele>
        <time>2016-01-17T15:12:21Z</time>
      </trkpt>
      <trkpt lat="42.89068" lon="0.43438">
        <ele>1169.1</ele>
        <time>2016-01-17T15:12:59Z</time>
      </trkpt>
      <trkpt lat="42.89086" lon="0.43389">
        <ele>1161.41</ele>
        <time>2016-01-17T15:13:31Z</time>
      </trkpt>
      <trkpt lat="42.89099" lon="0.43323">
        <ele>1153.24</ele>
        <time>2016-01-17T15:14:06Z</time>
      </trkpt>
      <trkpt lat="42.89112" lon="0.43268">
        <ele>1147.95</ele>
        <time>2016-01-17T15:14:38Z</time>
      </trkpt>
      <trkpt lat="42.89104" lon="0.43178">
        <ele>1142.66</ele>
        <time>2016-01-17T15:15:27Z</time>
      </trkpt>
      <trkpt lat="42.89119" lon="0.43131">
        <ele>1138.34</ele>
        <time>2016-01-17T15:16:28Z</time>
      </trkpt>
      <trkpt lat="42.8913" lon="0.43066">
        <ele>1133.53</ele>
        <time>2016-01-17T15:17:14Z</time>
      </trkpt>
      <trkpt lat="42.89147" lon="0.43008">
        <ele>1128.73</ele>
        <time>2016-01-17T15:17:54Z</time>
      </trkpt>
      <trkpt lat="42.89188" lon="0.4296">
        <ele>1118.63</ele>
        <time>2016-01-17T15:18:39Z</time>
      </trkpt>
      <trkpt lat="42.89217" lon="0.42973">
        <ele>1111.9</ele>
        <time>2016-01-17T15:19:20Z</time>
      </trkpt>
      <trkpt lat="42.89236" lon="0.42937">
        <ele>1107.58</ele>
        <time>2016-01-17T15:19:58Z</time>
      </trkpt>
      <trkpt lat="42.89265" lon="0.4289">
        <ele>1102.29</ele>
        <time>2016-01-17T15:20:33Z</time>
      </trkpt>
      <trkpt lat="42.89298" lon="0.42852">
        <ele>1097.48</ele>
        <time>2016-01-17T15:21:15Z</time>
      </trkpt>
      <trkpt lat="42.89333" lon="0.42809">
        <ele>1091.71</ele>
        <time>2016-01-17T15:21:54Z</time>
      </trkpt>
      <trkpt lat="42.89373" lon="0.42775">
        <ele>1086.91</ele>
        <time>2016-01-17T15:22:30Z</time>
      </trkpt>
      <trkpt lat="42.89413" lon="0.42742">
        <ele>1082.58</ele>
        <time>2016-01-17T15:23:06Z</time>
      </trkpt>
      <trkpt lat="42.89454" lon="0.4271">
        <ele>1077.78</ele>
        <time>2016-01-17T15:23:44Z</time>
      </trkpt>
      <trkpt lat="42.89503" lon="0.42686">
        <ele>1071.53</ele>
        <time>2016-01-17T15:24:21Z</time>
      </trkpt>
      <trkpt lat="42.89525" lon="0.42637">
        <ele>1068.64</ele>
        <time>2016-01-17T15:24:54Z</time>
      </trkpt>
    </trkseg>
  </trk>
</gpx>